Time;durP1;ratioP1;P1;durP2;ratioP2;P2;SDS_P1;SDS_P2;PMS_P1;PMS_P2;Temp;Humidity;BMP_temperature;BMP_pressure;BME280_temperature;BME280_humidity;BME280_pressure;Samples;Min_cycle;Max_cycle;Signal;HPM_P1;HPM_P2
2021/11/20 00:01:28;;;;;;;3.35;2.03;;;;;;;;;;4890176;29;20179;-70
2021/11/20 00:04:00;;;;;;;4.57;1.80;;;;;;;;;;4889928;29;20079;-70
2021/11/20 00:06:34;;;;;;;5.22;1.98;;;;;;;;;;4905711;29;20060;-70
2021/11/20 00:09:07;;;;;;;5.28;2.05;;;;;;;;;;4927811;29;20444;-70
2021/11/20 00:11:42;;;;;;;3.30;2.10;;;;;;;;;;4985418;28;20069;-71
2021/11/20 00:14:14;;;;;;;8.02;2.20;;;;;;;;;;4969557;28;20062;-70
2021/11/20 00:16:48;;;;;;;4.90;1.95;;;;;;;;;;4948708;28;20058;-72
2021/11/20 00:19:20;;;;;;;4.78;2.13;;;;;;;;;;4969554;28;20062;-70
2021/11/20 00:22:22;;;;;;;6.10;2.03;;;;;;;;;;4969793;28;20065;-69
2021/11/20 00:24:59;;;;;;;7.40;1.98;;;;;;;;;;4931446;29;20064;-70
2021/11/20 00:27:34;;;;;;;6.13;2.00;;;;;;;;;;4949135;29;20066;-70
2021/11/20 00:30:15;;;;;;;4.82;2.10;;;;;;;;;;4969012;28;20407;-71
2021/11/20 00:33:02;;;;;;;10.10;2.30;;;;;;;;;;4971149;28;20059;-71
2021/11/20 00:35:39;;;;;;;5.85;1.75;;;;;;;;;;4973297;28;20046;-71
2021/11/20 00:38:13;;;;;;;5.95;2.00;;;;;;;;;;4915804;29;20051;-71
2021/11/20 00:40:51;;;;;;;8.88;2.25;;;;;;;;;;4896544;29;20059;-71
2021/11/20 00:43:22;;;;;;;3.90;2.00;;;;;;;;;;4878054;29;20057;-71
2021/11/20 00:45:53;;;;;;;11.52;2.38;;;;;;;;;;4877806;29;20057;-70
2021/11/20 00:48:25;;;;;;;9.07;2.38;;;;;;;;;;4857109;29;20179;-70
2021/11/20 00:51:00;;;;;;;7.70;2.42;;;;;;;;;;4819529;29;20072;-71
2021/11/20 00:53:31;;;;;;;6.05;2.17;;;;;;;;;;4806652;29;20051;-70
2021/11/20 00:56:03;;;;;;;4.38;2.08;;;;;;;;;;4822535;29;20070;-71
2021/11/20 00:58:34;;;;;;;9.00;3.08;;;;;;;;;;4804417;29;20058;-71
2021/11/20 01:01:09;;;;;;;4.68;2.13;;;;;;;;;;4811186;29;20053;-71
2021/11/20 01:03:40;;;;;;;6.72;2.70;;;;;;;;;;4826603;29;20069;-71
2021/11/20 01:06:12;;;;;;;7.78;2.47;;;;;;;;;;4803740;29;20058;-71
2021/11/20 01:08:45;;;;;;;8.90;2.42;;;;;;;;;;4818804;29;20100;-71
2021/11/20 01:11:30;;;;;;;7.18;2.30;;;;;;;;;;4822049;29;20069;-72
2021/11/20 01:14:04;;;;;;;5.10;2.17;;;;;;;;;;4792461;29;20460;-71
2021/11/20 01:16:36;;;;;;;8.70;2.38;;;;;;;;;;4851376;29;20053;-72
2021/11/20 01:19:08;;;;;;;9.57;2.60;;;;;;;;;;4873777;29;20418;-72
2021/11/20 01:21:59;;;;;;;5.40;2.38;;;;;;;;;;4910218;29;20074;-73
2021/11/20 01:24:36;;;;;;;4.22;2.47;;;;;;;;;;4884797;29;20052;-73
2021/11/20 01:27:12;;;;;;;12.00;2.00;;;;;;;;;;4952236;28;20055;-72
2021/11/20 01:29:45;;;;;;;12.32;2.50;;;;;;;;;;4896487;29;20127;-72
2021/11/20 01:32:15;;;;;;;8.02;2.45;;;;;;;;;;4896246;29;20057;-72
2021/11/20 01:34:46;;;;;;;3.72;2.00;;;;;;;;;;4880849;29;20052;-72
2021/11/20 01:37:19;;;;;;;6.78;2.50;;;;;;;;;;4878927;29;20056;-71
2021/11/20 01:39:50;;;;;;;8.25;2.67;;;;;;;;;;4877239;29;20060;-72
2021/11/20 01:42:31;;;;;;;7.85;2.70;;;;;;;;;;4863157;29;20076;-72
2021/11/20 01:45:32;;;;;;;10.63;2.70;;;;;;;;;;4895536;29;20052;-73
2021/11/20 01:48:21;;;;;;;6.07;2.55;;;;;;;;;;4898087;29;20052;-72
2021/11/20 01:51:21;;;;;;;5.25;2.60;;;;;;;;;;4918002;29;20067;-75
2021/11/20 01:54:01;;;;;;;8.77;2.60;;;;;;;;;;4933624;29;20052;-73
2021/11/20 01:57:06;;;;;;;10.32;3.03;;;;;;;;;;4933243;29;20527;-71
2021/11/20 01:59:40;;;;;;;6.40;2.65;;;;;;;;;;4857373;29;20555;-74
2021/11/20 02:02:34;;;;;;;7.25;2.47;;;;;;;;;;4814937;29;20058;-74
2021/11/20 02:05:24;;;;;;;6.72;2.70;;;;;;;;;;4790442;29;20059;-74
2021/11/20 02:08:20;;;;;;;5.80;2.90;;;;;;;;;;4803265;29;20469;-72
2021/11/20 02:11:00;;;;;;;8.55;2.63;;;;;;;;;;4821505;29;20062;-73
2021/11/20 02:13:35;;;;;;;11.23;2.88;;;;;;;;;;4836190;29;20046;-72
2021/11/20 02:16:11;;;;;;;;;;;;;;;;;;4840074;29;20061;-72
2021/11/20 02:18:46;;;;;;;9.88;2.50;;;;;;;;;;4875958;29;19928;-71
2021/11/20 02:21:32;;;;;;;9.48;2.45;;;;;;;;;;4875875;29;20062;-73
2021/11/20 02:24:02;;;;;;;6.47;2.90;;;;;;;;;;4876174;29;20107;-72
2021/11/20 02:26:39;;;;;;;6.80;2.78;;;;;;;;;;4841088;29;20065;-71
2021/11/20 02:29:14;;;;;;;7.90;2.80;;;;;;;;;;4861820;29;20099;-72
2021/11/20 02:32:20;;;;;;;9.13;3.15;;;;;;;;;;4847363;29;20085;-75
2021/11/20 02:34:56;;;;;;;7.18;2.58;;;;;;;;;;4872197;29;20053;-74
2021/11/20 02:37:30;;;;;;;6.82;2.85;;;;;;;;;;4835414;29;20057;-74
2021/11/20 02:40:01;;;;;;;8.90;3.33;;;;;;;;;;4894363;29;20044;-74
2021/11/20 02:42:32;;;;;;;7.07;2.70;;;;;;;;;;4894212;29;20045;-74
2021/11/20 02:45:37;;;;;;;10.27;2.85;;;;;;;;;;4894590;29;20048;-74
2021/11/20 02:48:09;;;;;;;7.18;2.78;;;;;;;;;;4863535;29;20062;-71
2021/11/20 02:51:05;;;;;;;12.23;3.20;;;;;;;;;;4845165;29;20206;-72
2021/11/20 02:53:42;;;;;;;5.60;2.65;;;;;;;;;;4779009;29;20062;-71
2021/11/20 02:56:18;;;;;;;8.52;3.17;;;;;;;;;;4837456;29;20244;-71
2021/11/20 02:58:49;;;;;;;13.90;2.72;;;;;;;;;;4846729;29;20061;-73
2021/11/20 03:01:27;;;;;;;10.70;3.40;;;;;;;;;;4863288;29;20060;-72
2021/11/20 03:03:58;;;;;;;7.78;3.10;;;;;;;;;;4881708;29;20123;-72
2021/11/20 03:06:29;;;;;;;5.75;3.05;;;;;;;;;;4906672;29;20529;-72
2021/11/20 03:09:00;;;;;;;6.78;2.45;;;;;;;;;;4894410;29;20469;-72
2021/11/20 03:11:31;;;;;;;7.35;3.10;;;;;;;;;;4894331;29;20550;-71
2021/11/20 03:14:07;;;;;;;7.55;3.00;;;;;;;;;;4934076;28;20167;-72
2021/11/20 03:16:48;;;;;;;7.10;2.85;;;;;;;;;;4927759;29;20104;-73
2021/11/20 03:19:21;;;;;;;9.20;2.85;;;;;;;;;;4928916;29;20058;-72
2021/11/20 03:21:59;;;;;;;8.43;2.80;;;;;;;;;;4931622;29;20518;-72
2021/11/20 03:24:31;;;;;;;7.53;3.03;;;;;;;;;;4912902;29;20417;-71
2021/11/20 03:27:03;;;;;;;5.80;3.13;;;;;;;;;;4913006;29;20052;-72
2021/11/20 03:29:35;;;;;;;;;;;;;;;;;;4875845;29;20056;-72
2021/11/20 03:32:09;;;;;;;8.55;3.03;;;;;;;;;;4844035;29;20325;-72
2021/11/20 03:34:41;;;;;;;6.70;2.97;;;;;;;;;;4859914;29;20053;-72
2021/11/20 03:37:17;;;;;;;7.18;2.97;;;;;;;;;;4893653;29;20057;-73
2021/11/20 03:39:47;;;;;;;6.22;2.90;;;;;;;;;;4860221;29;20049;-74
2021/11/20 03:42:19;;;;;;;10.98;3.03;;;;;;;;;;4856236;29;20061;-76
2021/11/20 03:44:50;;;;;;;5.93;3.10;;;;;;;;;;4828497;29;20063;-75
2021/11/20 03:47:22;;;;;;;9.13;3.25;;;;;;;;;;4837791;29;20049;-75
2021/11/20 03:49:53;;;;;;;9.80;2.80;;;;;;;;;;4840825;29;20216;-75
2021/11/20 03:52:24;;;;;;;5.80;2.88;;;;;;;;;;4827862;29;20058;-75
2021/11/20 03:54:55;;;;;;;15.25;3.33;;;;;;;;;;4807274;29;20524;-75
2021/11/20 03:57:26;;;;;;;6.93;3.00;;;;;;;;;;4868460;29;20064;-75
2021/11/20 03:59:57;;;;;;;8.65;3.60;;;;;;;;;;4874962;29;20060;-72
2021/11/20 04:02:27;;;;;;;7.35;3.08;;;;;;;;;;4882174;29;20425;-74
2021/11/20 04:04:58;;;;;;;6.35;2.85;;;;;;;;;;4893026;29;20060;-72
2021/11/20 04:07:30;;;;;;;5.93;3.25;;;;;;;;;;4900528;29;20049;-75
2021/11/20 04:10:00;;;;;;;6.13;3.20;;;;;;;;;;4900881;29;20053;-75
2021/11/20 04:12:31;;;;;;;10.77;3.08;;;;;;;;;;4901297;29;20056;-73
2021/11/20 04:15:03;;;;;;;6.80;2.85;;;;;;;;;;4930971;29;20055;-75
2021/11/20 04:17:34;;;;;;;9.07;3.17;;;;;;;;;;4901768;29;20065;-73
2021/11/20 04:20:10;;;;;;;11.27;3.40;;;;;;;;;;4893004;29;20057;-74
2021/11/20 04:22:41;;;;;;;18.40;3.60;;;;;;;;;;4893384;29;20057;-75
2021/11/20 04:25:14;;;;;;;8.77;3.05;;;;;;;;;;4904013;29;20064;-75
2021/11/20 04:27:48;;;;;;;6.85;2.72;;;;;;;;;;4892906;29;20052;-75
2021/11/20 04:30:29;;;;;;;7.95;2.95;;;;;;;;;;4838532;29;20049;-72
2021/11/20 04:33:01;;;;;;;5.90;3.03;;;;;;;;;;4892858;29;20057;-72
2021/11/20 04:35:31;;;;;;;14.75;3.20;;;;;;;;;;4868508;29;20057;-73
2021/11/20 04:38:03;;;;;;;9.38;3.22;;;;;;;;;;4858745;29;20061;-72
2021/11/20 04:40:35;;;;;;;10.88;3.38;;;;;;;;;;4874799;29;20053;-73
2021/11/20 04:43:08;;;;;;;9.50;3.42;;;;;;;;;;4881093;29;20045;-73
2021/11/20 04:45:40;;;;;;;8.30;3.33;;;;;;;;;;4930532;29;20059;-72
2021/11/20 04:48:10;;;;;;;9.80;3.50;;;;;;;;;;4917841;29;20060;-73
2021/11/20 04:50:50;;;;;;;12.52;3.13;;;;;;;;;;4892223;29;20052;-73
2021/11/20 04:53:22;;;;;;;10.00;3.58;;;;;;;;;;4916082;29;20144;-73
2021/11/20 04:55:56;;;;;;;8.73;3.65;;;;;;;;;;4930529;29;20054;-73
2021/11/20 04:58:30;;;;;;;14.20;3.65;;;;;;;;;;4896216;29;20048;-75
2021/11/20 05:01:02;;;;;;;8.05;2.95;;;;;;;;;;4949783;29;20698;-76
2021/11/20 05:03:38;;;;;;;6.32;3.30;;;;;;;;;;4930097;29;20566;-76
2021/11/20 05:06:11;;;;;;;12.45;3.55;;;;;;;;;;4930947;29;20052;-75
2021/11/20 05:08:43;;;;;;;12.77;3.63;;;;;;;;;;4930634;29;20180;-75
2021/11/20 05:11:14;;;;;;;8.10;3.70;;;;;;;;;;4944823;29;20059;-75
2021/11/20 05:13:50;;;;;;;12.70;3.17;;;;;;;;;;4930556;29;20798;-74
2021/11/20 05:16:21;;;;;;;13.82;3.28;;;;;;;;;;4888209;29;20464;-74
2021/11/20 05:18:52;;;;;;;12.82;3.65;;;;;;;;;;4930350;29;20420;-75
2021/11/20 05:21:35;;;;;;;9.57;3.42;;;;;;;;;;4918426;29;20056;-76
2021/11/20 05:24:07;;;;;;;10.80;3.22;;;;;;;;;;4914037;29;20052;-76
2021/11/20 05:26:38;;;;;;;11.45;3.58;;;;;;;;;;4896136;29;20165;-76
2021/11/20 05:29:23;;;;;;;9.57;3.42;;;;;;;;;;4867078;29;20564;-75
2021/11/20 05:31:59;;;;;;;8.38;3.25;;;;;;;;;;4858756;29;20473;-75
2021/11/20 05:34:37;;;;;;;9.65;3.72;;;;;;;;;;4842636;29;20054;-75
2021/11/20 05:37:09;;;;;;;8.68;3.35;;;;;;;;;;4860180;29;20073;-75
2021/11/20 05:39:39;;;;;;;6.68;3.80;;;;;;;;;;4856838;29;20062;-76
2021/11/20 05:42:10;;;;;;;7.15;3.38;;;;;;;;;;4844866;29;20050;-76
2021/11/20 05:44:45;;;;;;;7.53;3.28;;;;;;;;;;4847249;29;20059;-74
2021/11/20 05:47:18;;;;;;;7.55;3.58;;;;;;;;;;4839801;29;20069;-75
2021/11/20 05:49:50;;;;;;;11.88;3.30;;;;;;;;;;4876628;29;20057;-76
2021/11/20 05:52:21;;;;;;;8.20;3.25;;;;;;;;;;4839708;29;20050;-75
2021/11/20 05:54:52;;;;;;;7.90;3.55;;;;;;;;;;4858113;29;20146;-73
2021/11/20 05:57:28;;;;;;;7.45;3.58;;;;;;;;;;4874210;29;20413;-75
2021/11/20 06:00:10;;;;;;;10.82;3.72;;;;;;;;;;4895293;29;20689;-76
2021/11/20 06:02:53;;;;;;;6.68;3.53;;;;;;;;;;4876907;29;20065;-75
2021/11/20 06:05:40;;;;;;;7.85;4.13;;;;;;;;;;4876341;29;20045;-74
2021/11/20 06:08:11;;;;;;;13.23;4.47;;;;;;;;;;4876560;29;20449;-75
2021/11/20 06:10:44;;;;;;;9.43;4.25;;;;;;;;;;4859556;29;20062;-76
2021/11/20 06:13:19;;;;;;;8.80;4.30;;;;;;;;;;4825790;29;20061;-73
2021/11/20 06:15:59;;;;;;;8.82;3.92;;;;;;;;;;4785873;29;20059;-74
2021/11/20 06:18:31;;;;;;;7.80;4.45;;;;;;;;;;4767393;29;20067;-73
2021/11/20 06:21:04;;;;;;;12.50;3.97;;;;;;;;;;4766892;30;20066;-76
2021/11/20 06:23:36;;;;;;;10.35;3.53;;;;;;;;;;4785100;29;20118;-76
2021/11/20 06:26:12;;;;;;;16.23;4.00;;;;;;;;;;4802541;29;20516;-76
2021/11/20 06:28:45;;;;;;;9.95;3.75;;;;;;;;;;4820929;29;20054;-77
2021/11/20 06:31:22;;;;;;;8.15;3.90;;;;;;;;;;4784403;29;20059;-76
2021/11/20 06:34:10;;;;;;;13.13;4.28;;;;;;;;;;4784520;30;20066;-76
2021/11/20 06:37:06;;;;;;;9.18;4.03;;;;;;;;;;4784610;30;20077;-76
2021/11/20 06:39:55;;;;;;;11.77;3.80;;;;;;;;;;4784393;30;20059;-76
2021/11/20 06:42:26;;;;;;;7.63;3.28;;;;;;;;;;4789749;29;20067;-76
2021/11/20 06:44:57;;;;;;;8.40;3.67;;;;;;;;;;4816141;29;20054;-76
2021/11/20 06:47:27;;;;;;;9.43;3.75;;;;;;;;;;4752338;30;20052;-76
2021/11/20 06:49:59;;;;;;;8.73;3.90;;;;;;;;;;4731469;30;20514;-76
2021/11/20 06:52:45;;;;;;;11.30;4.13;;;;;;;;;;4734479;30;20431;-76
2021/11/20 06:55:39;;;;;;;7.38;3.97;;;;;;;;;;4773760;30;20056;-76
2021/11/20 06:58:41;;;;;;;13.35;4.05;;;;;;;;;;4760581;30;20182;-76
2021/11/20 07:01:23;;;;;;;13.30;4.38;;;;;;;;;;4770538;30;20062;-76
2021/11/20 07:04:00;;;;;;;9.23;4.05;;;;;;;;;;4792713;29;20070;-76
2021/11/20 07:06:44;;;;;;;11.55;4.60;;;;;;;;;;4774559;29;20098;-73
2021/11/20 07:09:16;;;;;;;10.07;4.63;;;;;;;;;;4798339;29;20063;-76
2021/11/20 07:11:48;;;;;;;13.07;5.38;;;;;;;;;;4831422;29;20058;-76
2021/11/20 07:14:18;;;;;;;14.75;5.95;;;;;;;;;;4820785;29;20062;-75
2021/11/20 07:16:49;;;;;;;12.75;5.40;;;;;;;;;;4805184;29;20095;-76
2021/11/20 07:19:20;;;;;;;8.05;5.00;;;;;;;;;;4820246;29;20058;-76
2021/11/20 07:22:09;;;;;;;11.23;4.65;;;;;;;;;;4826426;29;20065;-76
2021/11/20 07:25:03;;;;;;;10.10;4.43;;;;;;;;;;4840579;29;20518;-74
2021/11/20 07:27:34;;;;;;;8.77;4.43;;;;;;;;;;4856724;29;20049;-76
2021/11/20 07:30:07;;;;;;;9.23;4.53;;;;;;;;;;4824879;29;20062;-74
2021/11/20 07:32:51;;;;;;;8.80;5.28;;;;;;;;;;4897637;29;20059;-76
2021/11/20 07:35:33;;;;;;;12.05;4.15;;;;;;;;;;4935270;29;20067;-76
2021/11/20 07:38:06;;;;;;;8.57;4.43;;;;;;;;;;4950879;29;20066;-76
2021/11/20 07:40:39;;;;;;;11.95;5.25;;;;;;;;;;4951151;29;20530;-77
2021/11/20 07:43:11;;;;;;;10.30;4.18;;;;;;;;;;4969204;28;20403;-77
2021/11/20 07:46:00;;;;;;;9.65;4.82;;;;;;;;;;4970485;28;20055;-76
2021/11/20 07:48:34;;;;;;;7.65;4.50;;;;;;;;;;4931107;29;20052;-76
2021/11/20 07:51:09;;;;;;;8.93;4.90;;;;;;;;;;4893605;29;20060;-76
2021/11/20 07:53:46;;;;;;;9.82;4.97;;;;;;;;;;4841342;29;20435;-76
2021/11/20 07:56:20;;;;;;;10.13;5.05;;;;;;;;;;4856583;29;20084;-76
2021/11/20 07:58:57;;;;;;;10.77;4.50;;;;;;;;;;4840384;29;20050;-76
2021/11/20 08:01:28;;;;;;;10.10;4.57;;;;;;;;;;4856599;29;20065;-74
2021/11/20 08:03:59;;;;;;;10.55;5.45;;;;;;;;;;4837562;29;20058;-76
2021/11/20 08:06:44;;;;;;;;;;;;;;;;;;4855293;29;20085;-76
2021/11/20 08:09:44;;;;;;;8.75;4.78;;;;;;;;;;4783907;29;19932;-76
2021/11/20 08:12:28;;;;;;;9.57;5.13;;;;;;;;;;4783372;30;20063;-76
2021/11/20 08:15:12;;;;;;;9.05;5.05;;;;;;;;;;4801097;29;20066;-76
2021/11/20 08:17:56;;;;;;;9.30;4.82;;;;;;;;;;4783337;29;20574;-76
2021/11/20 08:20:49;;;;;;;10.70;5.40;;;;;;;;;;4774536;29;20056;-73
2021/11/20 08:23:25;;;;;;;10.05;5.43;;;;;;;;;;4765815;30;20066;-76
2021/11/20 08:25:57;;;;;;;9.43;4.57;;;;;;;;;;4823715;29;20066;-76
2021/11/20 08:28:29;;;;;;;9.48;5.05;;;;;;;;;;4869701;29;20470;-76
2021/11/20 08:31:00;;;;;;;11.90;4.95;;;;;;;;;;4893331;29;20048;-76
2021/11/20 08:33:32;;;;;;;8.80;4.95;;;;;;;;;;4893294;29;20517;-76
2021/11/20 08:36:21;;;;;;;10.70;4.80;;;;;;;;;;4893300;29;20049;-76
2021/11/20 08:39:14;;;;;;;11.52;4.80;;;;;;;;;;4893252;29;20061;-77
2021/11/20 08:41:47;;;;;;;9.70;4.25;;;;;;;;;;4884521;29;20064;-77
2021/11/20 08:44:18;;;;;;;11.88;4.97;;;;;;;;;;4879074;29;20060;-76
2021/11/20 08:46:54;;;;;;;8.80;4.97;;;;;;;;;;4906448;29;20048;-76
2021/11/20 08:49:28;;;;;;;9.55;4.45;;;;;;;;;;4923922;29;20066;-76
2021/11/20 08:51:59;;;;;;;11.77;4.30;;;;;;;;;;4915816;29;20674;-76
2021/11/20 08:54:32;;;;;;;9.57;4.50;;;;;;;;;;4932210;29;20060;-76
2021/11/20 08:57:04;;;;;;;10.52;4.03;;;;;;;;;;4919420;29;20056;-77
2021/11/20 08:59:39;;;;;;;9.57;4.10;;;;;;;;;;4915220;29;20063;-76
2021/11/20 09:02:12;;;;;;;11.52;3.95;;;;;;;;;;4915731;29;20072;-76
2021/11/20 09:05:06;;;;;;;10.43;4.20;;;;;;;;;;4915165;29;20059;-75
2021/11/20 09:07:39;;;;;;;8.73;4.20;;;;;;;;;;4918217;28;20048;-76
2021/11/20 09:10:17;;;;;;;9.73;4.45;;;;;;;;;;4934099;29;20055;-76
2021/11/20 09:13:14;;;;;;;10.68;4.50;;;;;;;;;;4934051;29;20074;-76
2021/11/20 09:15:49;;;;;;;;;;;;;;;;;;4877863;29;20415;-76
2021/11/20 09:18:29;;;;;;;10.48;4.20;;;;;;;;;;4837012;29;19977;-76
2021/11/20 09:21:01;;;;;;;10.15;4.13;;;;;;;;;;4827183;29;20066;-73
2021/11/20 09:24:08;;;;;;;7.05;3.63;;;;;;;;;;4833877;29;20053;-73
2021/11/20 09:26:42;;;;;;;8.45;4.07;;;;;;;;;;4858978;29;20580;-73
2021/11/20 09:29:14;;;;;;;;;;;;;;;;;;4859186;29;20045;-73
2021/11/20 09:31:47;;;;;;;12.52;4.60;;;;;;;;;;4858622;29;19924;-72
2021/11/20 09:34:18;;;;;;;10.43;4.07;;;;;;;;;;4821693;29;20070;-72
2021/11/20 09:36:57;;;;;;;9.07;3.78;;;;;;;;;;4840096;29;20054;-72
2021/11/20 09:40:01;;;;;;;7.90;3.80;;;;;;;;;;4804029;29;20078;-71
2021/11/20 09:42:53;;;;;;;7.70;4.00;;;;;;;;;;4821684;29;20057;-72
2021/11/20 09:45:28;;;;;;;9.02;4.30;;;;;;;;;;4829669;29;20054;-72
2021/11/20 09:48:09;;;;;;;9.90;4.03;;;;;;;;;;4821791;29;20519;-72
2021/11/20 09:50:59;;;;;;;8.32;4.22;;;;;;;;;;4806375;29;20534;-72
2021/11/20 09:53:30;;;;;;;14.73;5.28;;;;;;;;;;4817372;29;20584;-71
2021/11/20 09:56:07;;;;;;;11.23;4.35;;;;;;;;;;4821311;29;20046;-70
2021/11/20 09:58:44;;;;;;;9.27;5.05;;;;;;;;;;4816824;29;20059;-72
2021/11/20 10:01:23;;;;;;;8.38;4.60;;;;;;;;;;4788834;29;20058;-70
2021/11/20 10:04:04;;;;;;;8.70;4.57;;;;;;;;;;4821272;29;20057;-70
2021/11/20 10:06:42;;;;;;;7.40;4.30;;;;;;;;;;4797620;29;20065;-70
2021/11/20 10:09:45;;;;;;;11.63;5.60;;;;;;;;;;4831446;29;20054;-70
2021/11/20 10:12:25;;;;;;;9.52;4.82;;;;;;;;;;4832458;29;20065;-70
2021/11/20 10:15:09;;;;;;;10.85;4.70;;;;;;;;;;4839253;29;20054;-70
2021/11/20 10:17:47;;;;;;;9.95;4.35;;;;;;;;;;4839782;29;20408;-70
2021/11/20 10:20:29;;;;;;;;;;;;;;;;;;4840161;29;20057;-71
2021/11/20 10:23:05;;;;;;;10.77;4.30;;;;;;;;;;4855965;29;19935;-69
2021/11/20 10:25:54;;;;;;;8.52;4.88;;;;;;;;;;4876683;29;20060;-69
2021/11/20 10:28:46;;;;;;;9.40;4.50;;;;;;;;;;4886050;29;20060;-69
2021/11/20 10:31:25;;;;;;;7.75;4.15;;;;;;;;;;4839343;29;20065;-69
2021/11/20 10:33:55;;;;;;;;;;;;;;;;;;4850671;29;20064;-69
2021/11/20 10:36:34;;;;;;;6.03;4.15;;;;;;;;;;4839008;29;19925;-69
2021/11/20 10:39:19;;;;;;;7.57;4.30;;;;;;;;;;4839762;29;20151;-68
2021/11/20 10:42:10;;;;;;;7.93;4.30;;;;;;;;;;4872076;29;20053;-69
2021/11/20 10:44:41;;;;;;;11.48;4.68;;;;;;;;;;4894875;29;20527;-69
2021/11/20 10:47:14;;;;;;;8.80;4.63;;;;;;;;;;4857208;29;20510;-69
2021/11/20 10:49:48;;;;;;;7.25;4.00;;;;;;;;;;4850142;29;20052;-69
2021/11/20 10:52:56;;;;;;;10.05;4.63;;;;;;;;;;4864402;29;20528;-69
2021/11/20 10:55:43;;;;;;;8.77;4.45;;;;;;;;;;4894431;29;20137;-70
2021/11/20 10:58:18;;;;;;;8.43;4.00;;;;;;;;;;4856951;29;20090;-68
2021/11/20 11:01:03;;;;;;;8.20;4.00;;;;;;;;;;4826995;29;20065;-68
2021/11/20 11:04:07;;;;;;;7.40;3.70;;;;;;;;;;4894232;29;20079;-68
2021/11/20 11:07:16;;;;;;;7.88;3.83;;;;;;;;;;4894572;29;20437;-69
2021/11/20 11:10:21;;;;;;;7.45;4.20;;;;;;;;;;4857194;29;20457;-67
2021/11/20 11:13:02;;;;;;;14.50;7.93;;;;;;;;;;4820210;29;20058;-67
2021/11/20 11:16:12;;;;;;;8.27;4.13;;;;;;;;;;4838178;29;20460;-68
2021/11/20 11:18:49;;;;;;;10.45;5.05;;;;;;;;;;4838304;29;20070;-68
2021/11/20 11:21:34;;;;;;;6.18;3.33;;;;;;;;;;4838715;29;20077;-68
2021/11/20 11:24:31;;;;;;;9.15;5.43;;;;;;;;;;4860206;29;20061;-68
2021/11/20 11:27:12;;;;;;;10.48;4.78;;;;;;;;;;4880778;29;20053;-68
2021/11/20 11:29:59;;;;;;;11.27;4.53;;;;;;;;;;4894119;29;20063;-69
2021/11/20 11:32:32;;;;;;;10.32;4.68;;;;;;;;;;4894299;29;20064;-69
2021/11/20 11:35:42;;;;;;;7.78;4.35;;;;;;;;;;4903950;29;20061;-67
2021/11/20 11:38:26;;;;;;;8.63;3.90;;;;;;;;;;4856609;29;20061;-68
2021/11/20 11:41:13;;;;;;;9.43;4.57;;;;;;;;;;4852554;29;20061;-67
2021/11/20 11:44:04;;;;;;;8.30;4.78;;;;;;;;;;4863250;29;20553;-70
2021/11/20 11:46:35;;;;;;;8.20;4.15;;;;;;;;;;4856695;29;20065;-67
2021/11/20 11:49:21;;;;;;;8.88;3.80;;;;;;;;;;4883054;29;20448;-66
2021/11/20 11:52:14;;;;;;;5.95;4.22;;;;;;;;;;4894022;29;20057;-67
2021/11/20 11:55:01;;;;;;;7.57;4.53;;;;;;;;;;4893913;29;20078;-67
2021/11/20 11:57:57;;;;;;;9.60;3.70;;;;;;;;;;4878647;29;20056;-68
2021/11/20 12:00:36;;;;;;;10.50;4.47;;;;;;;;;;4893691;29;20056;-67
2021/11/20 12:03:29;;;;;;;7.93;3.50;;;;;;;;;;4912505;29;20044;-67
2021/11/20 12:06:18;;;;;;;6.50;3.65;;;;;;;;;;4874783;29;20081;-66
2021/11/20 12:08:59;;;;;;;6.78;3.70;;;;;;;;;;4875324;29;20065;-67
2021/11/20 12:11:32;;;;;;;9.63;3.28;;;;;;;;;;4874853;29;20049;-66
2021/11/20 12:14:15;;;;;;;6.60;3.30;;;;;;;;;;4926891;29;20063;-66
2021/11/20 12:16:56;;;;;;;6.60;3.40;;;;;;;;;;4950630;29;20055;-67
2021/11/20 12:19:42;;;;;;;6.72;3.40;;;;;;;;;;4931354;29;20737;-66
2021/11/20 12:22:42;;;;;;;4.68;2.15;;;;;;;;;;4900010;29;20505;-67
2021/11/20 12:25:12;;;;;;;3.72;2.05;;;;;;;;;;4910610;29;20071;-66
2021/11/20 12:27:50;;;;;;;4.82;2.00;;;;;;;;;;4912486;29;20055;-66
2021/11/20 12:30:33;;;;;;;4.82;2.08;;;;;;;;;;4916143;29;20067;-66
2021/11/20 12:33:23;;;;;;;6.93;2.90;;;;;;;;;;4916474;29;20064;-65
2021/11/20 12:36:14;;;;;;;5.65;2.80;;;;;;;;;;4916209;29;20064;-67
2021/11/20 12:38:50;;;;;;;;;;;;;;;;;;4900771;29;20105;-68
2021/11/20 12:42:01;;;;;;;4.05;2.53;;;;;;;;;;4916287;29;20504;-66
2021/11/20 12:44:41;;;;;;;4.03;2.40;;;;;;;;;;4934581;29;20043;-66
2021/11/20 12:47:28;;;;;;;2.75;1.83;;;;;;;;;;4935248;29;20079;-67
2021/11/20 12:50:05;;;;;;;6.00;2.63;;;;;;;;;;4919325;29;20070;-67
2021/11/20 12:53:06;;;;;;;4.35;2.08;;;;;;;;;;4915771;29;20555;-66
2021/11/20 12:55:46;;;;;;;3.58;1.92;;;;;;;;;;4916117;29;20108;-66
2021/11/20 12:58:23;;;;;;;5.20;2.50;;;;;;;;;;4973053;28;20129;-67
2021/11/20 13:00:56;;;;;;;5.55;2.20;;;;;;;;;;4953741;28;20059;-66
2021/11/20 13:03:34;;;;;;;5.47;2.50;;;;;;;;;;4967857;28;20490;-67
2021/11/20 13:06:11;;;;;;;3.72;2.10;;;;;;;;;;4972548;28;20046;-68
2021/11/20 13:08:59;;;;;;;3.58;2.15;;;;;;;;;;4973054;28;20415;-66
2021/11/20 13:11:37;;;;;;;3.40;2.10;;;;;;;;;;4953238;28;20047;-66
2021/11/20 13:14:15;;;;;;;4.03;2.30;;;;;;;;;;4906814;28;20059;-66
2021/11/20 13:16:59;;;;;;;4.43;2.75;;;;;;;;;;4934176;29;20064;-67
2021/11/20 13:20:18;;;;;;;4.15;2.33;;;;;;;;;;4921583;29;20500;-67
2021/11/20 13:23:04;;;;;;;4.75;2.42;;;;;;;;;;4863295;29;20518;-66
2021/11/20 13:25:59;;;;;;;4.78;2.58;;;;;;;;;;4859258;29;20069;-66
2021/11/20 13:28:34;;;;;;;3.80;2.20;;;;;;;;;;4873793;29;20049;-67
2021/11/20 13:31:06;;;;;;;7.72;2.33;;;;;;;;;;4858752;29;20053;-66
2021/11/20 13:33:37;;;;;;;4.10;2.30;;;;;;;;;;4877209;29;20053;-67
2021/11/20 13:36:09;;;;;;;5.07;2.17;;;;;;;;;;4895948;29;20130;-66
2021/11/20 13:38:39;;;;;;;;;;;;;;;;;;4882713;29;20209;-67
2021/11/20 13:41:09;;;;;;;4.35;2.20;;;;;;;;;;4872981;29;20320;-66
2021/11/20 13:43:45;;;;;;;4.95;1.92;;;;;;;;;;4892083;29;20067;-68
2021/11/20 13:46:16;;;;;;;4.93;2.78;;;;;;;;;;4880128;29;20867;-65
2021/11/20 13:48:51;;;;;;;5.35;3.22;;;;;;;;;;4883281;29;20068;-67
2021/11/20 13:51:29;;;;;;;9.57;3.38;;;;;;;;;;4895876;29;20056;-67
2021/11/20 13:54:10;;;;;;;;;;;;;;;;;;4918166;29;20048;-66
2021/11/20 13:56:43;;;;;;;3.78;2.47;;;;;;;;;;4934110;29;19923;-66
2021/11/20 13:59:18;;;;;;;4.68;2.25;;;;;;;;;;4918259;29;20060;-66
2021/11/20 14:01:54;;;;;;;4.43;2.22;;;;;;;;;;4933710;29;20515;-67
2021/11/20 14:04:34;;;;;;;7.28;2.22;;;;;;;;;;4933765;29;20062;-66
2021/11/20 14:07:07;;;;;;;6.50;2.33;;;;;;;;;;4952215;29;20420;-66
2021/11/20 14:09:47;;;;;;;3.55;2.05;;;;;;;;;;4937077;29;20059;-66
2021/11/20 14:12:26;;;;;;;5.47;2.25;;;;;;;;;;4973825;28;20529;-66
2021/11/20 14:15:08;;;;;;;6.47;2.47;;;;;;;;;;5006708;28;20046;-66
2021/11/20 14:17:39;;;;;;;8.30;1.90;;;;;;;;;;5010559;28;20038;-66
2021/11/20 14:20:12;;;;;;;3.40;2.20;;;;;;;;;;4991169;28;20058;-66
2021/11/20 14:22:43;;;;;;;4.15;2.05;;;;;;;;;;4991255;28;20104;-67
2021/11/20 14:25:24;;;;;;;6.35;3.20;;;;;;;;;;4959475;28;20093;-68
2021/11/20 14:28:01;;;;;;;5.32;2.55;;;;;;;;;;4991241;28;20426;-66
2021/11/20 14:30:39;;;;;;;2.95;1.67;;;;;;;;;;4952511;28;20058;-66
2021/11/20 14:33:30;;;;;;;4.90;1.98;;;;;;;;;;4951845;28;20059;-67
2021/11/20 14:36:04;;;;;;;2.88;1.60;;;;;;;;;;4952020;28;20058;-66
2021/11/20 14:38:46;;;;;;;3.60;1.73;;;;;;;;;;4952119;28;20132;-66
2021/11/20 14:41:18;;;;;;;3.95;1.60;;;;;;;;;;4952001;28;20062;-74
2021/11/20 14:43:48;;;;;;;4.45;2.55;;;;;;;;;;4908929;29;20059;-67
2021/11/20 14:46:41;;;;;;;6.43;4.03;;;;;;;;;;4913776;29;20060;-68
2021/11/20 14:49:17;;;;;;;5.20;2.42;;;;;;;;;;4932269;28;20408;-66
2021/11/20 14:51:50;;;;;;;5.93;3.40;;;;;;;;;;4926159;29;20175;-66
2021/11/20 14:54:23;;;;;;;6.90;4.03;;;;;;;;;;4896441;29;20059;-68
2021/11/20 14:57:03;;;;;;;2.58;1.70;;;;;;;;;;4918913;28;20071;-67
2021/11/20 14:59:42;;;;;;;3.53;1.40;;;;;;;;;;4936180;28;20570;-67
2021/11/20 15:02:14;;;;;;;3.03;1.52;;;;;;;;;;4951715;28;20515;-67
2021/11/20 15:04:45;;;;;;;5.28;1.40;;;;;;;;;;4951268;28;20104;-69
2021/11/20 15:07:17;;;;;;;3.10;1.80;;;;;;;;;;4929093;28;20051;-65
2021/11/20 15:09:47;;;;;;;4.22;1.73;;;;;;;;;;4973813;28;20415;-66
2021/11/20 15:12:34;;;;;;;3.63;1.65;;;;;;;;;;5010265;28;20491;-66
2021/11/20 15:15:05;;;;;;;2.35;1.55;;;;;;;;;;5009840;28;20058;-66
2021/11/20 15:17:38;;;;;;;2.53;1.58;;;;;;;;;;5010012;28;20409;-68
2021/11/20 15:20:11;;;;;;;5.20;1.70;;;;;;;;;;4967324;28;20063;-64
2021/11/20 15:22:44;;;;;;;3.30;1.33;;;;;;;;;;4952054;29;20059;-65
2021/11/20 15:25:15;;;;;;;3.20;1.77;;;;;;;;;;4968518;28;20562;-66
2021/11/20 15:27:46;;;;;;;2.08;1.23;;;;;;;;;;4987451;28;20054;-66
2021/11/20 15:30:17;;;;;;;5.05;1.48;;;;;;;;;;4990265;28;20046;-65
2021/11/20 15:32:48;;;;;;;2.53;1.40;;;;;;;;;;4990349;28;20525;-64
2021/11/20 15:35:19;;;;;;;4.47;1.50;;;;;;;;;;4990132;28;20144;-65
2021/11/20 15:37:50;;;;;;;2.38;1.25;;;;;;;;;;4990767;28;20507;-65
2021/11/20 15:40:21;;;;;;;6.07;1.42;;;;;;;;;;4986917;28;20531;-65
2021/11/20 15:42:54;;;;;;;2.83;1.33;;;;;;;;;;4970959;28;20058;-65
2021/11/20 15:45:24;;;;;;;3.38;1.50;;;;;;;;;;4965269;28;20415;-67
2021/11/20 15:47:55;;;;;;;6.15;1.52;;;;;;;;;;4955053;28;20065;-67
2021/11/20 15:50:26;;;;;;;4.43;1.50;;;;;;;;;;4970397;28;20054;-66